Latest Observation

67 Stations

10 Minute Data
as of 5/8/26 4:18 PM PDT
Station Date Time Temp (°F) RH (%) Dew Pt (°F) Wind Spd (mph) Wind Dir (°) Wind Gust (mph) Wind Gst Dir (°) Latest Rain (In) Soil Moist (%) Soil Temp (°F) Daily Rain (In) Daily Min Temp (°F) Daily Max Temp (°F) Daily Max Wind (mph)
Hobart Mills 5/8/26 1610 70.0   2.6 21   15 28.2   11.1 2.0   2.4 SW | 218 4.2   3.7 WSW | 245 0.00 - 32.0   0.0 0.03 28.9   8.9 70.6   1.0 8.6   0.4
Prosser Dam 5/8/26 1610 70.4   2.0 21   13 28.2   10.7 6.9   2.1 W | 274 12.9   4.8 W | 265 0.00 22.5   1.1 50.8   0.0 0.00 28.7   8.1 71.8   1.5 22.2   0.5
West Incline Village 5/8/26 1610 63.4   0.3 26   2 28.2   2.1 6.3   1.0 S | 175 14.2   0.2 SE | 142 0.00 32.8   0.8 46.0   0.5 0.00 42.5   2.2 64.2   1.0 14.3   4.7
Incline Village (Fairview Blvd) 5/8/26 1610 65.8   3.0 24   14 27.5   8.7 3.0   1.3 SW | 225 9.3   6.2 WSW | 242 0.00 26.1   0.5 52.2   1.2 0.00 44.4   1.3 66.6   1.8 11.4   4.1
Incline Village (Diamond Peak) 5/8/26 1610 63.0   1.6 22   16 24.0   11.8 2.3   1.2 ENE | 75 5.7   0.9 SSE | 156 0.00 9.4   0.2 46.2   0.7 0.00 45.1   0.9 63.2   0.7 6.6   9.2
Incline Village (Mill Creek) 5/8/26 1610 66.3   3.1 20   20 24.0   14.6 3.0   0.4 WSW | 254 7.9   1.1 SW | 229 0.00 11.0   0.2 46.9   0.9 0.00 41.1   3.9 67.1   2.1 15.5   0.9
Incline Village (Lakeshore Blvd) 5/8/26 1610 63.6   4.7 36   21 36.0   7.8 2.0   7.5 S | 191 3.5   8.1 S | 180 0.00 30.9   2.2 58.7   0.2 0.00 34.0   6.1 64.2   2.2 5.5   6.2
Glenbrook 5/8/26 1610 65.6   3.3 25   28 28.7   16.1 3.4   1.2 WSW | 244 5.5   1.5 WSW | 253 0.00 44.3   0.0 45.6   0.5 0.00 37.5   4.1 66.5   2.3 5.7   0.9
Zephyr Cove 5/8/26 1610 66.5   0.2 23   7 27.2   7.0 2.3   0.7 NW | 324 4.7   0.0 NNW | 327 0.00 - 34.3   0.0 0.00 39.7   4.0 68.2   1.4 6.8   0.1
Kingsbury Grade 5/8/26 1610 68.5   2.4 21   8 27.0   6.2 1.9   1.2 SW | 227 6.3   2.2 SSW | 198 0.00 6.7   0.4 55.8   0.9 0.00 36.4   4.9 69.2   0.8 13.7   2.7
South Daggett Pass (Ridge) 5/8/26 1610 61.5   0.5 25   8 24.9   6.8 3.5   2.1 WNW | 285 14.2   4.0 NW | 319 0.00 6.7   0.0 48.7   0.9 0.00 41.0   4.1 62.6   0.8 14.9   7.6
Palomino Valley 5/8/26 1610 78.3   0.4 17   0 30.5   0.1 9.8   4.6 NW | 310 18.0   3.5 NNW | 327 0.00 7.0   0.0 67.4   0.9 0.00 41.6   4.2 79.6   0.7 24.3   4.4
East Cold Springs 5/8/26 1610 72.9   0.2 20   8 29.3   8.3 10.9   0.7 NW | 310 17.5   1.4 NW | 309 0.00 1.8   0.1 57.7   0.2 0.00 45.0   4.7 74.0   1.0 22.6   2.2
Peavine 5/8/26 1610 69.2   0.6 21   6 27.5   6.5 9.0   5.5 N | 1 20.4   8.7 N | 353 0.00 - 53.4   0.0 0.00 45.3   6.9 70.7   1.0 24.1   2.6
West Verdi Peak 5/8/26 1610 70.6   2.7 20   3 28.2   1.4 6.8   0.4 WNW | 299 18.0   3.5 WNW | 302 0.00 19.9   1.2 55.0   0.6 0.00 43.7   3.9 71.6   1.4 19.6   4.1
West Verdi 5/8/26 1610 75.2   2.1 16   7 25.9   6.7 8.0   3.0 S | 187 13.7   7.8 S | 176 0.00 7.9   0.1 64.0   0.8 0.00 42.6   7.2 76.0   1.1 20.2   5.0
South Verdi 5/8/26 1610 73.4   2.6 16   10 25.0   9.9 11.2   12.3 WSW | 248 22.8   9.8 WSW | 248 0.00 16.3   0.4 65.9   0.7 0.00 40.6   9.3 73.9   1.9 27.1   7.8
Northwest Reno 5/8/26 1610 75.6   1.5 16   4 25.7   4.6 12.3   9.3 W | 270 21.9   9.7 WSW | 249 0.00 23.8   0.1 66.2   0.6 0.00 48.8   5.8 76.6   1.3 28.0   8.8
North Lawton 5/8/26 1610 75.2   0.7 15   7 24.2   8.4 10.6   2.3 S | 191 17.1   2.5 S | 190 0.00 - 60.4   21.3 0.00 47.2   5.5 77.0   1.3 21.5   7.8
West Reno (Mogul) 5/8/26 1610 75.8   2.0 14   8 23.9   9.5 4.8   8.1 WNW | 300 12.3   12.8 NW | 312 0.00 36.7   0.6 62.3   1.0 0.00 47.4   3.5 77.2   1.8 17.3   11.5
Caughlin (Hunter Lake Trail) 9/16/25 0800 59.7   3.5 41   11 35.9   2.7 0.0   0.0 N | 0 0.0   0.0 ENE | 66 0.00 15.7   0.0 69.8   0.5 0.00 55.7   3.2 67.7   9.1 9.4   0.9
ArrowCreek 5/8/26 1610 75.8   1.6 15   6 24.8   7.1 8.3   1.7 W | 263 16.0   4.1 NW | 306 0.00 - 32.0   0.0 0.00 46.0   5.6 77.0   0.8 26.0   2.5
Tracy 5/8/26 1610 79.6   1.5 14   3 26.6   5.7 7.9   4.1 W | 275 14.7   7.3 W | 267 0.00 8.0   0.0 66.7   1.6 0.00 51.5   4.1 81.2   1.5 24.0   6.7
Virginia Highlands 5/8/26 1610 71.2   0.6 18   7 25.3   7.5 6.8   0.0 WNW | 295 15.5   1.7 NW | 316 0.00 8.1   0.2 57.9   1.2 0.00 49.4   3.9 72.8   0.8 18.1   0.1
Virginia City 5/8/26 1610 70.1   2.3 18   9 24.6   7.9 8.7   3.1 SSW | 209 16.4   5.2 S | 178 0.00 8.4   0.0 57.6   1.3 0.00 53.3   1.1 71.1   1.1 23.2   4.3
Six Mile Canyon 9/9/25 0630 60.2   9.6 37   6 33.7   4.8 4.1   2.5 W | 277 6.1   2.9 WNW | 286 0.00 12.5   0.0 75.5   0.7 0.00 57.9   7.6 64.4   1.9 7.0   3.9
Mt Rose Highway 4/30/26 0510 40.8   4.7 47   13 22.3   1.3 2.3   0.2 WSW | 243 4.8   2.1 WSW | 246 0.00 24.1   0.3 43.0   0.8 0.00 40.5   4.7 43.0   5.3 7.7   0.4
Pleasant Valley 5/8/26 1610 76.2   2.0 17   9 28.0   9.2 8.1   6.4 SSW | 198 13.5   8.6 S | 191 0.00 2.8   0.0 64.8   1.2 0.00 40.9   6.9 76.9   1.6 19.6   6.0
New Washoe City 5/8/26 1610 74.3   1.5 16   7 26.0   7.9 11.0   3.1 WSW | 238 18.0   5.0 SW | 234 0.00 4.5   0.0 61.0   1.2 0.00 44.2   3.1 75.5   1.3 20.1   7.2
Franktown Creek 5/8/26 1610 74.0   1.4 17   8 26.6   8.6 3.8   0.8 W | 265 14.3   1.5 WNW | 288 0.00 11.2   0.1 56.8   1.2 0.00 43.2   3.3 75.7   2.1 18.5   8.4
Musgrove Creek 5/8/26 1610 72.0   3.0 18   9 26.5   6.9 2.1   2.1 SSW | 206 8.9   4.7 SSE | 147 0.00 41.8   3.1 54.5   1.0 0.00 52.6   1.5 72.7   1.4 15.2   5.3
East Carson 11/23/24 0110 28.6   28.4 - - 4.7   11.0 SW | 220 14.7   10.1 SW | 219 0.02 - 50.9   0.1 0.02 -25.9   79.1 42.9   14.6 16.0   10.7
Kings Canyon 5/8/26 1610 73.5   2.6 17   14 26.4   12.5 7.0   3.7 SW | 224 12.7   1.7 SW | 219 0.00 14.6   0.3 60.0   0.2 0.00 43.4   4.2 74.3   1.3 16.4   4.6
Carson City (Voltaire Canyon) 5/8/26 1610 74.0   1.4 16   13 24.8   13.7 14.3   1.6 SSW | 208 21.4   1.0 SSW | 209 0.00 2.8   0.0 62.3   1.6 0.00 52.0   2.1 75.6   1.4 25.2   0.9
Jacks Valley 5/8/26 1610 73.6   2.4 16   15 25.2   13.9 9.8   1.7 SW | 222 16.6   13.9 SW | 230 0.00 13.5   0.3 73.3   2.0 0.00 46.5   2.7 75.0   1.0 23.8   7.6
Genoa 5/8/26 1610 76.6   1.5 17   6 29.1   6.1 1.9   2.3 S | 181 6.8   7.0 S | 180 0.00 7.8   0.8 75.7   1.9 0.00 44.7   3.1 79.3   2.6 14.9   6.3
South Genoa (Walleys Hot Springs) 5/8/26 1610 76.7   1.4 18   4 29.5   4.1 7.9   0.5 NW | 317 16.9   1.1 NNW | 336 0.00 10.7   3.3 63.9   1.7 0.00 40.3   4.0 77.8   0.0 22.1   0.6
SW Gardnerville (HWY 88) 5/8/26 1610 74.8   0.3 24   4 35.1   4.3 16.1   1.5 NW | 316 23.1   1.2 NW | 316 0.00 3.4   0.0 59.0   1.2 0.00 37.3   3.9 76.2   0.3 23.1   4.3
Sheridan 5/8/26 1610 77.5   1.6 18   2 31.0   4.2 7.9   4.3 WNW | 301 18.8   3.5 NW | 318 0.00 4.0   0.8 63.0   1.3 0.00 42.6   2.0 78.1   0.4 18.8   10.8
Ruhenstroth 5/8/26 1610 76.7   0.2 18   1 30.0   1.4 11.7   0.8 NW | 309 19.8   0.5 NW | 310 0.00 12.4   0.1 62.8   1.3 0.00 43.0   1.9 78.0   0.4 20.4   0.1
Double Spring 5/8/26 1610 72.7   1.4 18   5 26.4   5.3 7.8   2.4 NW | 315 32.0   14.2 NNW | 342 0.00 31.0   0.1 61.0   1.9 0.00 38.8   0.8 73.5   1.4 32.0   5.1
North Topaz Lake 5/8/26 1610 75.0   1.3 15   8 24.0   10.0 4.5   6.4 WNW | 297 11.4   8.0 NW | 326 0.00 10.0   0.0 79.1   1.5 0.00 56.6   2.1 76.3   1.2 20.4   2.7
Wild Oat Mountain 5/8/26 1610 73.6   2.2 16   9 24.7   9.0 10.1   1.8 WNW | 288 19.0   5.8 WNW | 294 0.00 16.8   0.1 60.5   0.9 0.00 55.1   1.4 74.7   1.4 24.3   1.4
Smith Valley 5/8/26 1610 79.6   1.2 14   4 27.1   5.5 9.8   1.2 NW | 312 17.8   3.3 WNW | 303 0.00 5.8   0.0 64.0   1.5 0.00 45.6   3.8 80.8   0.4 21.5   2.5
Pine Grove Mountain 5/8/26 1610 64.2   0.8 15   12 15.8   13.0 11.8   3.2 WNW | 292 21.9   4.8 NW | 310 0.00 21.6   0.7 56.1   1.5 0.00 47.4   4.0 66.8   2.1 24.7   4.3
Paradise Hill 5/8/26 1610 77.3   1.7 17   5 29.2   8.3 8.2   1.6 WNW | 300 18.4   1.9 W | 279 0.00 8.0   0.1 63.2   0.8 0.00 42.0   3.7 78.3   2.7 27.0   6.5
Winnemucca 5/8/26 1610 78.3   1.9 14   5 25.6   8.4 13.4   1.8 W | 266 24.6   5.8 W | 269 0.00 5.9   0.0 63.3   0.9 0.00 51.8   1.3 79.4   1.4 28.1   6.6
NE Elko 5/8/26 1610 76.8   1.8 17   2 28.5   0.7 11.7   2.5 SW | 225 19.2   2.0 SW | 233 0.00 12.5   0.0 64.1   0.7 0.00 33.8   4.1 77.8   1.4 25.1   6.5
North Elko 5/8/26 1610 73.7   0.8 17   5 26.4   5.3 11.6   1.5 WSW | 257 20.1   0.0 WSW | 248 0.00 28.4   0.1 60.2   2.0 0.00 47.0   2.1 75.0   0.4 26.1   8.0
South Elko 5/8/26 1610 71.0   2.3 20   6 27.5   8.2 10.4   4.1 W | 270 19.8   6.1 W | 261 0.00 18.5   0.0 62.1   1.6 0.00 52.8   2.5 - 26.0   5.5
Lamoille 1/28/26 1720 33.2   0.5 65   17 22.8   6.3 5.8   1.5 SSE | 166 7.7   1.9 SE | 139 0.00 12.2   0.0 33.4   0.1 0.02 23.5   2.0 36.5   5.9 25.6   17.4
Reid Gardner Sub 5/8/26 1610 100.3   8.2 10   1 32.8   3.9 5.0   1.6 SSE | 162 11.9   1.7 SE | 146 0.00 25.6   1.9 77.1   2.8 0.00 54.2   1.9 100.7   8.0 17.1   7.0
Corn Creek 5/8/26 1610 92.7   4.8 10   2 28.8   1.4 17.2   8.7 WNW | 293 25.0   9.4 WNW | 300 0.00 4.0   0.0 84.2   4.0 0.00 71.2   9.1 93.9   5.1 28.0   7.8
Lucky Strike 5/8/26 1610 81.5   5.5 12   2 23.2   0.3 15.6   12.2 N | 350 29.4   21.4 N | 354 0.00 4.4   0.1 78.4   2.8 0.00 69.2   12.1 82.6   6.0 29.4   9.7
Lower Angel Peak 5/8/26 1610 76.6   5.9 14   3 24.7   0.0 7.0   1.3 WSW | 244 18.8   8.2 NNW | 339 0.00 10.0   0.3 60.9   2.6 0.00 56.8   10.8 77.2   5.8 28.9   10.2
Angel Peak 5/8/26 1610 64.7   3.1 18   4 20.7   1.9 11.4   7.4 ESE | 121 24.3   12.3 ESE | 122 0.00 4.7   1.0 61.5   3.2 0.00 63.1   16.7 73.8   10.4 33.0   16.9
Upper Kyle Canyon 5/8/26 1610 68.1   2.7 17   5 22.3   3.5 10.0   4.8 WNW | 291 18.4   6.1 NNW | 328 0.00 13.1   0.2 58.8   1.9 0.00 48.2   4.1 69.6   3.3 22.1   6.2
Mt Charleston 5/8/26 1610 69.5   3.2 17   4 23.4   2.6 3.6   1.3 NW | 320 10.1   0.6 NNW | 337 0.00 18.2   0.1 51.3   1.4 0.00 51.9   5.7 71.6   4.6 15.0   1.6
Mid Kyle Canyon 5/8/26 1610 76.6   5.1 15   3 24.9   0.6 10.0   1.7 E | 101 16.0   2.7 E | 101 0.00 7.0   0.0 63.0   2.9 0.00 56.4   7.5 78.0   5.3 32.0   11.8
Blue Diamond 5/8/26 1610 90.2   3.8 12   2 30.4   0.4 12.2   4.7 WSW | 243 21.1   6.4 WSW | 258 0.00 3.1   0.0 76.9   2.4 0.00 68.6   18.5 92.4   5.4 22.7   7.3
Artesian Sub 5/8/26 1610 100.1   7.7 9   2 32.3   1.3 1.7   1.0 WNW | 290 7.7   0.4 NW | 312 0.00 13.2   0.1 74.8   0.5 0.00 70.2   3.8 102.2   7.3 14.7   5.5
North Henderson 5/8/26 1610 100.2   7.4 9   2 31.7   1.2 7.7   3.2 NW | 306 14.9   5.7 NW | 320 0.00 9.0   0.3 80.7   1.3 0.00 72.9   7.6 101.9   8.2 19.4   7.1
Sandy Valley 5/8/26 1610 93.8   5.3 13   3 34.9   1.8 10.4   0.6 SW | 236 16.0   1.5 WSW | 237 0.00 4.5   0.0 82.7   2.6 0.00 68.7   9.4 95.1   5.1 31.9   12.8
Searchlight 5/8/26 1620 91.3   5.8 14   1 35.9   7.2 9.9   6.3 SSE | 157 18.8   4.3 SSE | 156 0.00 4.7   0.1 82.3   3.6 0.00 68.5   12.3 92.9   6.6 29.8   7.2
Laughlin 5/8/26 1610 104.3   5.6 11   2 39.9   8.4 5.7   5.4 SSE | 156 14.9   2.7 SSE | 160 0.00 4.2   0.0 84.9   0.5 0.00 73.6   4.7 105.2   6.1 14.9   8.1
31Mission Hills 5/8/26 1610 96.5   7.8 10   2 30.2   1.3 15.3   8.9 W | 268 28.4   12.2 W | 274 0.00 4.0   0.1 94.9   4.2 0.00 74.2   6.2 97.6   8.0 28.4   10.6
32 Enterprise Sierra Cliffs 5/8/26 1610 93.2   6.3 9   2 25.2   0.5 9.2   4.5 WSW | 237 16.3   7.2 WSW | 237 0.00 2.5   0.1 89.7   4.7 0.00 73.0   6.1 94.6   6.9 25.7   11.4
Max     104.3 36 39.9 17.2 - 32.0 - 0.00 44.3 94.9 0.03 74.2 105.2 33.0
Avg     76.3 17 27.4 8.1 - 16.1 - 0.00 13.1 62.5 - - - -
Min     61.5 9 15.8 1.7 - 3.5 - 0.00 1.8 32.0 0.00 28.7 62.6 5.5